Flight Number: AVA1048 Duration: 1:15
Departure: Dusseldorf (EDDL) at 04:00 Distance: 304.216 Nm
Arrival: Geneva Cointrin (LSGG) at 05:15 Equipment: ATR72

Weather Information
Duesseldorf, Germany (EDDL) 51-18N 006-46E 41M Jul 13, 2020 - 07:50 PM EDT / 2020.07.13 2350 UTC
Wind: Variable at 1 MPH (1 KT):0
Visibility: greater than 7 mile(s):0 Temperature: 55 F (13 C) Dew Point: 50 F (10 C) Relative Humidity: 81% Pressure (altimeter): 30.06 in. Hg (1018 hPa)
ob: EDDL 132350Z VRB01KT CAVOK 13/10 Q1018 NOSIG cycle: 0
Sunrise: 03:39 Sunset: 19:38 (UTC)

Geneve-Cointrin, Switzerland (LSGG) 46-15N 006-08E 416M Jul 13, 2020 - 07:50 PM EDT / 2020.07.13 2350 UTC
Wind: Variable at 1 MPH (1 KT):0
Visibility: greater than 7 mile(s):0 Temperature: 62 F (17 C) Dew Point: 53 F (12 C) Relative Humidity: 72% Pressure (altimeter): 30.06 in. Hg (1018 hPa)
ob: LSGG 132350Z AUTO VRB01KT 9999 NCD 17/12 Q1018 NOSIG cycle: 0
Sunrise: 04:02 Sunset: 19:20 (UTC)

TAF:2020/07/13 21:37 TAF LSGG 132025Z 1321/1503 VRB03KT 9999 SCT080 TX25/1415Z TN12/1404Z BECMG 1321/1323 CAVOK BECMG 1410/1412 9999 FEW040 BKN090 PROB30 TEMPO 1411/1415 33010KT

This route has never been flown.

Route map